Terminal Aerodrome Forecast
Issued by NWS Des Moines, IA

Home | Current Version | Previous Version | Text Only | Print | Product List | Glossary On
Versions: 1 2 3 4 5 6 7 8 9 10 11 12 13 14 15 16 17 18 19 20 21 22 23 24 25 26 27 28 29 30 31 32 33 34 35 36
000
FTUS43 KDMX 290841 AAB
TAFALO
TAF AMD
KALO 290841Z 2909/3006 18009KT 6SM -SHRA BR SCT007 OVC100
      TEMPO 2909/2912 4SM -SHRA BR SCT006 BKN020
     FM291200 19010KT 5SM BR BKN006
     FM291630 19011KT P6SM SCT020 BKN150
     FM292000 19009KT P6SM VCSH BKN050
     FM300300 23005KT 5SM BR BKN030=

USA.gov is the U.S. government's official web portal to all federal, state and local government web resources and services.